Time;durP1;ratioP1;P1;durP2;ratioP2;P2;SDS_P1;SDS_P2;PMS_P1;PMS_P2;Temp;Humidity;BMP_temperature;BMP_pressure;BME280_temperature;BME280_humidity;BME280_pressure;Samples;Min_cycle;Max_cycle;Signal;HPM_P1;HPM_P2
2022/09/18 00:01:30;;;;;;;3.88;2.55;;;;;;;11.15;100.00;100272.56;4997564;28;20713;-73
2022/09/18 00:03:58;;;;;;;10.10;3.13;;;;;;;11.09;100.00;100272.84;4998642;28;20206;-72
2022/09/18 00:06:27;;;;;;;7.60;3.13;;;;;;;11.01;100.00;100276.81;4995647;28;20216;-71
2022/09/18 00:08:57;;;;;;;5.18;3.25;;;;;;;10.96;100.00;100273.44;4998016;28;20290;-74
2022/09/18 00:11:26;;;;;;;11.75;3.70;;;;;;;10.97;100.00;100277.91;4998791;28;20195;-72
2022/09/18 00:13:53;;;;;;;5.55;2.65;;;;;;;11.00;100.00;100277.72;4996881;28;20706;-72
2022/09/18 00:16:21;;;;;;;6.65;2.88;;;;;;;11.03;100.00;100272.22;4998712;28;20250;-71
2022/09/18 00:18:48;;;;;;;7.20;3.03;;;;;;;11.06;100.00;100276.56;4990904;28;20680;-72
2022/09/18 00:21:17;;;;;;;6.78;2.67;;;;;;;11.06;100.00;100277.44;4998074;28;20223;-72
2022/09/18 00:23:45;;;;;;;4.88;2.90;;;;;;;11.05;100.00;100264.03;5004326;28;20263;-71
2022/09/18 00:26:21;;;;;;;3.42;2.78;;;;;;;11.07;100.00;100278.31;4997709;28;20287;-73
2022/09/18 00:28:47;;;;;;;4.75;3.28;;;;;;;11.05;100.00;100272.97;5003609;28;20213;-72
2022/09/18 00:31:18;;;;;;;4.55;2.95;;;;;;;11.09;100.00;100278.25;4999949;28;20200;-73
2022/09/18 00:33:45;;;;;;;5.18;2.90;;;;;;;11.10;100.00;100278.13;5000764;28;20203;-72
2022/09/18 00:36:14;;;;;;;8.43;3.97;;;;;;;11.10;100.00;100269.19;4999894;28;21094;-73
2022/09/18 00:38:41;;;;;;;7.22;3.20;;;;;;;11.15;100.00;100276.13;4994324;28;20201;-71
2022/09/18 00:41:13;;;;;;;4.78;2.60;;;;;;;11.20;100.00;100276.75;4990903;28;20608;-73
2022/09/18 00:43:40;;;;;;;5.03;2.70;;;;;;;11.18;100.00;100278.66;4987902;28;20679;-72
2022/09/18 00:46:14;;;;;;;7.60;3.00;;;;;;;11.21;100.00;100278.47;4987017;28;20223;-72
2022/09/18 00:48:49;;;;;;;5.15;2.65;;;;;;;11.25;100.00;100281.91;4991350;28;20311;-72
2022/09/18 00:51:18;;;;;;;9.13;4.00;;;;;;;11.31;100.00;100278.91;4994389;28;20196;-70
2022/09/18 00:53:56;;;;;;;5.95;2.72;;;;;;;11.27;100.00;100285.41;4999388;28;20199;-71
2022/09/18 00:56:25;;;;;;;6.60;3.20;;;;;;;11.25;100.00;100281.91;4988240;28;20295;-74
2022/09/18 00:58:52;;;;;;;6.40;2.70;;;;;;;11.21;100.00;100280.31;4993945;28;20666;-71
2022/09/18 01:01:18;;;;;;;5.35;2.90;;;;;;;11.15;100.00;100278.81;4995178;28;20266;-72
2022/09/18 01:03:45;;;;;;;8.35;2.55;;;;;;;11.18;100.00;100275.94;4995585;28;20573;-72
2022/09/18 01:06:16;;;;;;;4.70;2.72;;;;;;;11.19;100.00;100274.13;4987762;28;20229;-71
2022/09/18 01:08:55;;;;;;;6.97;3.70;;;;;;;11.07;100.00;100268.38;4997366;28;20679;-74
2022/09/18 01:11:31;;;;;;;4.47;2.35;;;;;;;11.04;100.00;100273.06;4996286;28;20203;-72
2022/09/18 01:14:13;;;;;;;4.50;3.10;;;;;;;10.96;100.00;100269.88;4997989;28;20928;-73
2022/09/18 01:16:49;;;;;;;5.35;2.67;;;;;;;10.95;100.00;100274.41;4991128;28;20227;-70
2022/09/18 01:19:33;;;;;;;5.22;2.95;;;;;;;10.96;100.00;100277.97;4994093;28;20197;-73
2022/09/18 01:22:14;;;;;;;5.80;3.28;;;;;;;10.95;100.00;100271.72;4987577;28;20583;-72
2022/09/18 01:24:50;;;;;;;4.70;3.30;;;;;;;10.95;100.00;100271.72;4993616;28;20199;-72
2022/09/18 01:27:29;;;;;;;4.70;2.88;;;;;;;10.90;100.00;100281.84;4990500;28;20234;-70
2022/09/18 01:30:02;;;;;;;6.13;2.63;;;;;;;10.85;100.00;100268.59;4985040;28;20208;-72
2022/09/18 01:32:38;;;;;;;4.68;2.40;;;;;;;10.83;100.00;100269.59;4996294;28;20195;-72
2022/09/18 01:35:10;;;;;;;9.55;3.85;;;;;;;10.88;100.00;100272.97;4990965;28;20263;-72
2022/09/18 01:37:41;;;;;;;7.72;3.08;;;;;;;10.97;100.00;100275.19;4993069;28;20195;-71
2022/09/18 01:40:16;;;;;;;4.95;2.85;;;;;;;10.92;100.00;100271.88;4988686;28;20205;-71
2022/09/18 01:42:48;;;;;;;4.47;2.63;;;;;;;10.85;100.00;100278.47;4994982;28;20790;-72
2022/09/18 01:45:21;;;;;;;4.63;3.08;;;;;;;10.96;100.00;100280.66;4998547;28;20223;-72
2022/09/18 01:47:53;;;;;;;7.10;2.70;;;;;;;10.97;100.00;100271.63;4996982;28;20203;-72
2022/09/18 01:50:20;;;;;;;6.30;3.05;;;;;;;10.91;100.00;100275.50;4998372;28;20192;-70
2022/09/18 01:52:52;;;;;;;3.90;2.80;;;;;;;10.98;100.00;100279.63;5000077;28;20209;-74
2022/09/18 01:55:25;;;;;;;5.72;2.90;;;;;;;11.03;100.00;100277.59;4995594;28;20227;-71
2022/09/18 01:57:55;;;;;;;3.63;2.33;;;;;;;11.00;100.00;100274.16;4998386;28;20219;-72
2022/09/18 02:00:23;;;;;;;4.05;2.78;;;;;;;11.00;100.00;100271.47;4998482;28;20210;-73
2022/09/18 02:02:54;;;;;;;6.07;2.65;;;;;;;10.94;100.00;100274.47;4997591;28;20210;-72
2022/09/18 02:05:26;;;;;;;5.50;2.45;;;;;;;10.98;100.00;100282.31;4997693;28;20223;-73
2022/09/18 02:08:01;;;;;;;6.68;2.50;;;;;;;11.00;100.00;100282.25;4996808;28;20206;-74
2022/09/18 02:10:30;;;;;;;5.00;3.08;;;;;;;11.02;100.00;100269.59;4998182;28;20297;-73
2022/09/18 02:12:58;;;;;;;5.05;3.03;;;;;;;11.07;100.00;100276.47;4997581;28;20195;-73
2022/09/18 02:15:32;;;;;;;4.80;2.50;;;;;;;10.95;100.00;100271.72;4997424;28;20693;-72
2022/09/18 02:18:03;;;;;;;3.97;2.60;;;;;;;11.05;100.00;100272.97;4997896;28;20684;-72
2022/09/18 02:20:31;;;;;;;2.92;2.47;;;;;;;11.09;100.00;100265.63;4994279;28;20210;-71
2022/09/18 02:23:02;;;;;;;5.78;2.50;;;;;;;10.98;100.00;100271.53;4998045;28;20267;-71
2022/09/18 02:25:33;;;;;;;4.80;2.42;;;;;;;11.06;100.00;100255.88;4998102;28;20227;-73
2022/09/18 02:28:01;;;;;;;4.05;2.70;;;;;;;11.04;100.00;100257.78;4993721;28;20201;-73
2022/09/18 02:30:29;;;;;;;4.40;2.25;;;;;;;11.04;100.00;100263.16;4996764;28;20238;-72
2022/09/18 02:32:57;;;;;;;4.93;2.53;;;;;;;11.09;100.00;100256.69;4997816;28;20556;-70
2022/09/18 02:35:33;;;;;;;4.40;2.25;;;;;;;11.10;100.00;100266.50;4997570;28;20261;-74
2022/09/18 02:38:05;;;;;;;6.93;2.72;;;;;;;11.03;100.00;100264.13;4999820;28;20194;-73
2022/09/18 02:40:41;;;;;;;6.65;2.42;;;;;;;11.08;100.00;100263.91;5003524;28;20250;-75
2022/09/18 02:43:22;;;;;;;3.42;2.65;;;;;;;11.15;100.00;100261.78;5003493;28;20333;-72
2022/09/18 02:45:59;;;;;;;5.45;2.92;;;;;;;11.05;100.00;100253.25;4997413;28;20321;-73
2022/09/18 02:48:41;;;;;;;3.20;2.03;;;;;;;11.03;100.00;100258.75;4997762;28;20245;-72
2022/09/18 02:51:15;;;;;;;5.18;2.80;;;;;;;10.93;100.00;100268.22;4983729;28;20199;-74
2022/09/18 02:53:46;;;;;;;3.75;2.25;;;;;;;11.03;100.00;100255.16;4981610;28;20199;-73
2022/09/18 02:56:21;;;;;;;7.35;2.67;;;;;;;11.11;100.00;100252.09;4990494;28;20218;-73
2022/09/18 02:58:54;;;;;;;5.45;2.80;;;;;;;11.04;100.00;100252.38;4995049;28;20213;-72
2022/09/18 03:01:26;;;;;;;7.10;2.60;;;;;;;11.04;100.00;100247.00;4997998;28;20219;-72
2022/09/18 03:03:52;;;;;;;3.30;1.85;;;;;;;10.95;100.00;100258.22;4995185;28;20224;-72
2022/09/18 03:06:19;;;;;;;4.45;2.00;;;;;;;10.95;100.00;100252.84;4995696;28;20219;-72
2022/09/18 03:08:46;;;;;;;5.82;3.20;;;;;;;10.97;100.00;100250.94;5005445;28;20274;-72
2022/09/18 03:11:12;;;;;;;2.50;1.85;;;;;;;10.97;100.00;100250.09;5008021;28;20219;-73
2022/09/18 03:13:39;;;;;;;4.75;1.80;;;;;;;11.07;100.00;100248.66;5013746;28;20263;-73
2022/09/18 03:16:05;;;;;;;4.63;2.25;;;;;;;11.11;100.00;100246.69;5005070;28;20318;-71
2022/09/18 03:18:35;;;;;;;3.70;2.00;;;;;;;11.13;100.00;100240.28;5007237;28;20234;-71
2022/09/18 03:21:02;;;;;;;2.83;1.52;;;;;;;11.21;100.00;100243.44;5001030;28;20214;-73
2022/09/18 03:23:29;;;;;;;3.83;2.03;;;;;;;11.18;100.00;100234.66;5000315;28;20217;-73
2022/09/18 03:25:55;;;;;;;2.63;1.85;;;;;;;11.15;100.00;100240.22;5005761;28;20229;-73
2022/09/18 03:28:22;;;;;;;3.58;2.40;;;;;;;11.21;100.00;100237.19;4999197;28;20204;-72
2022/09/18 03:30:48;;;;;;;3.25;1.98;;;;;;;11.21;100.00;100243.44;5004233;28;20217;-73
2022/09/18 03:33:15;;;;;;;5.28;2.40;;;;;;;11.21;100.00;100231.78;5000822;28;20199;-72
2022/09/18 03:35:44;;;;;;;3.20;1.88;;;;;;;11.26;100.00;100233.31;5003289;28;20636;-71
2022/09/18 03:38:10;;;;;;;3.83;1.80;;;;;;;11.26;100.00;100229.72;4996980;28;20586;-72
2022/09/18 03:40:37;;;;;;;3.53;1.73;;;;;;;11.26;100.00;100233.31;4998538;28;20575;-71
2022/09/18 03:43:03;;;;;;;4.13;1.60;;;;;;;11.23;100.00;100229.88;4993691;28;20219;-72
2022/09/18 03:45:30;;;;;;;3.70;2.08;;;;;;;11.31;100.00;100233.09;5002673;28;20231;-72
2022/09/18 03:47:57;;;;;;;3.03;2.00;;;;;;;11.33;100.00;100231.19;4994431;28;20199;-72
2022/09/18 03:50:23;;;;;;;4.07;1.50;;;;;;;11.29;100.00;100229.59;4999518;28;20204;-71
2022/09/18 03:52:53;;;;;;;2.92;1.80;;;;;;;11.30;100.00;100223.22;4996760;28;20212;-72
2022/09/18 03:55:21;;;;;;;3.55;1.50;;;;;;;11.20;100.00;100225.53;4994323;28;20230;-71
2022/09/18 03:57:49;;;;;;;2.72;1.60;;;;;;;11.26;100.00;100232.41;4995536;28;20208;-73
2022/09/18 04:00:16;;;;;;;3.35;1.45;;;;;;;11.29;100.00;100232.28;5009066;28;20210;-72
2022/09/18 04:02:43;;;;;;;3.05;1.77;;;;;;;11.22;100.00;100222.78;5004236;28;20219;-70
2022/09/18 04:05:10;;;;;;;4.35;1.55;;;;;;;11.25;100.00;100225.31;5002276;28;20631;-71
2022/09/18 04:07:36;;;;;;;2.80;1.60;;;;;;;11.33;100.00;100224.88;5002313;28;20199;-71
2022/09/18 04:10:06;;;;;;;3.85;1.88;;;;;;;11.33;100.00;100239.28;5002000;28;20207;-72
2022/09/18 04:12:32;;;;;;;5.03;1.42;;;;;;;11.35;100.00;100234.69;5001006;28;20199;-72
2022/09/18 04:14:59;;;;;;;4.80;2.00;;;;;;;11.38;100.00;100234.50;5000873;28;20207;-71
2022/09/18 04:17:26;;;;;;;2.75;1.67;;;;;;;11.34;100.00;100230.22;4999697;28;20576;-74
2022/09/18 04:19:53;;;;;;;2.58;1.27;;;;;;;11.37;100.00;100221.09;4994787;28;20207;-74
2022/09/18 04:22:20;;;;;;;4.15;1.85;;;;;;;11.32;100.00;100231.25;5000186;28;20219;-71
2022/09/18 04:24:49;;;;;;;3.17;1.45;;;;;;;11.33;100.00;100220.41;4998343;28;20199;-71
2022/09/18 04:27:17;;;;;;;5.05;1.55;;;;;;;11.28;100.00;100222.44;4999560;28;20282;-72
2022/09/18 04:29:43;;;;;;;4.78;1.60;;;;;;;11.30;100.00;100225.94;4997018;28;20291;-73
2022/09/18 04:32:10;;;;;;;3.42;1.25;;;;;;;11.27;100.00;100231.50;4997259;28;20204;-72
2022/09/18 04:34:36;;;;;;;3.42;1.50;;;;;;;11.26;100.00;100227.03;4995263;28;20207;-72
2022/09/18 04:37:03;;;;;;;3.33;1.35;;;;;;;11.28;100.00;100217.03;5027745;23;20230;-73
2022/09/18 04:39:31;;;;;;;4.07;1.60;;;;;;;11.21;100.00;100221.00;5017844;28;20202;-73
2022/09/18 04:41:58;;;;;;;2.58;1.90;;;;;;;11.24;100.00;100231.66;5019226;28;20226;-72
2022/09/18 04:44:26;;;;;;;4.28;1.60;;;;;;;11.27;100.00;100232.34;5017204;28;20209;-73
2022/09/18 04:46:52;;;;;;;3.42;1.40;;;;;;;11.32;100.00;100231.25;5017428;28;20222;-72
2022/09/18 04:49:19;;;;;;;6.30;1.70;;;;;;;11.37;100.00;100229.19;5009053;28;20203;-72
2022/09/18 04:51:46;;;;;;;3.95;1.10;;;;;;;11.31;100.00;100238.47;5014799;28;20229;-72
2022/09/18 04:54:12;;;;;;;3.15;1.38;;;;;;;11.33;100.00;100244.66;5022885;28;20708;-73
2022/09/18 04:56:39;;;;;;;3.40;1.50;;;;;;;11.38;100.00;100244.44;5022577;28;20267;-74
2022/09/18 04:59:06;;;;;;;5.10;1.42;;;;;;;11.40;100.00;100242.53;5026366;28;20203;-73
2022/09/18 05:01:34;;;;;;;3.00;1.50;;;;;;;11.32;100.00;100229.41;5018229;28;20209;-74
2022/09/18 05:04:01;;;;;;;2.50;1.33;;;;;;;11.36;100.00;100239.09;5014679;28;20638;-74
2022/09/18 05:06:28;;;;;;;4.97;1.85;;;;;;;11.39;100.00;100228.16;5011729;28;20219;-73
2022/09/18 05:08:54;;;;;;;4.28;1.50;;;;;;;11.36;100.00;100225.63;5018155;28;20202;-74
2022/09/18 05:11:21;;;;;;;1.70;1.25;;;;;;;11.39;100.00;100233.53;5017131;28;20213;-72
2022/09/18 05:13:48;;;;;;;2.75;1.50;;;;;;;11.39;100.00;100230.84;5015053;28;20669;-73
2022/09/18 05:16:14;;;;;;;6.10;1.50;;;;;;;11.42;100.00;100233.41;5016635;28;20696;-75
2022/09/18 05:18:42;;;;;;;3.65;1.30;;;;;;;11.46;100.00;100237.69;5017422;28;20750;-73
2022/09/18 05:21:09;;;;;;;2.20;1.00;;;;;;;11.39;100.00;100230.84;5018524;28;20202;-75
2022/09/18 05:23:36;;;;;;;2.35;1.50;;;;;;;11.40;100.00;100226.34;5013422;28;20250;-75
2022/09/18 05:26:03;;;;;;;2.40;1.25;;;;;;;11.43;100.00;100235.13;5008340;28;20218;-74
2022/09/18 05:28:29;;;;;;;3.20;1.80;;;;;;;11.46;100.00;100231.41;5017624;28;20202;-74
2022/09/18 05:30:58;;;;;;;4.43;1.20;;;;;;;11.39;100.00;100238.94;5018957;28;20556;-75
2022/09/18 05:33:25;;;;;;;1.90;1.10;;;;;;;11.45;100.00;100240.47;5015431;28;20198;-75
2022/09/18 05:35:55;;;;;;;3.08;1.20;;;;;;;11.44;100.00;100239.59;5014287;28;20234;-76
2022/09/18 05:38:22;;;;;;;2.13;1.20;;;;;;;11.48;100.00;100243.84;5009036;28;20210;-75
2022/09/18 05:40:49;;;;;;;2.35;1.60;;;;;;;11.50;100.00;100251.88;5013548;28;20199;-74
2022/09/18 05:43:15;;;;;;;3.42;2.00;;;;;;;11.51;100.00;100240.16;5013503;28;20219;-75
2022/09/18 05:45:42;;;;;;;2.88;1.50;;;;;;;11.54;100.00;100239.97;5010463;28;20228;-74
2022/09/18 05:48:11;;;;;;;2.85;1.20;;;;;;;11.53;100.00;100246.31;5012667;28;20285;-74
2022/09/18 05:50:37;;;;;;;2.90;1.15;;;;;;;11.52;100.00;100255.38;5028514;28;20198;-75
2022/09/18 05:53:07;;;;;;;2.83;1.60;;;;;;;11.51;100.00;100250.03;5030311;28;20210;-75
2022/09/18 05:55:34;;;;;;;1.80;1.13;;;;;;;11.54;100.00;100242.69;5019259;28;20199;-75
2022/09/18 05:58:02;;;;;;;2.47;1.30;;;;;;;11.58;100.00;100254.19;5014693;28;20282;-75
2022/09/18 06:00:31;;;;;;;4.25;2.63;;;;;;;11.50;100.00;100249.19;5013414;28;20208;-74
2022/09/18 06:03:00;;;;;;;1.83;1.10;;;;;;;11.53;100.00;100245.44;5014908;28;20308;-74
2022/09/18 06:05:29;;;;;;;3.20;1.60;;;;;;;11.50;100.00;100246.47;5012010;28;20546;-74
2022/09/18 06:07:57;;;;;;;2.40;1.30;;;;;;;11.55;100.00;100240.84;5012950;28;20199;-74
2022/09/18 06:10:25;;;;;;;3.88;1.30;;;;;;;11.58;100.00;100246.97;5010626;28;20198;-74
2022/09/18 06:13:00;;;;;;;2.78;1.48;;;;;;;11.54;100.00;100250.78;5011607;28;20574;-74
2022/09/18 06:15:26;;;;;;;3.03;1.50;;;;;;;11.61;100.00;100251.31;5011274;28;20213;-76
2022/09/18 06:17:53;;;;;;;2.20;1.10;;;;;;;11.63;100.00;100250.28;5013307;28;20203;-74
2022/09/18 06:20:20;;;;;;;1.83;1.10;;;;;;;11.64;100.00;100252.03;5012678;28;20218;-74
2022/09/18 06:22:47;;;;;;;3.45;1.20;;;;;;;11.72;100.00;100257.03;5013398;28;20306;-75
2022/09/18 06:25:17;;;;;;;3.83;1.25;;;;;;;11.78;100.00;100259.41;5010878;28;20201;-74
2022/09/18 06:27:45;;;;;;;4.18;1.30;;;;;;;11.87;100.00;100264.34;5016282;28;20653;-74
2022/09/18 06:30:12;;;;;;;2.33;1.30;;;;;;;11.91;100.00;100269.59;5011573;28;20202;-75
2022/09/18 06:32:39;;;;;;;4.15;1.10;;;;;;;11.93;100.00;100259.59;5012358;28;20191;-74
2022/09/18 06:35:07;;;;;;;1.98;1.10;;;;;;;11.93;100.00;100264.97;5011864;28;20214;-74
2022/09/18 06:37:33;;;;;;;1.70;1.02;;;;;;;11.91;100.00;100265.06;5011055;28;20240;-74
2022/09/18 06:40:00;;;;;;;2.55;1.27;;;;;;;11.98;100.00;100260.19;5010305;28;20206;-74
2022/09/18 06:42:26;;;;;;;2.85;1.05;;;;;;;11.97;100.00;100263.88;5007041;28;20219;-75
2022/09/18 06:44:54;;;;;;;2.10;1.10;;;;;;;12.00;100.00;100269.09;5011286;28;20211;-73
2022/09/18 06:47:20;;;;;;;7.25;1.50;;;;;;;12.04;100.00;100262.59;5014882;28;20246;-73
2022/09/18 06:49:47;;;;;;;1.83;1.02;;;;;;;12.06;100.00;100268.78;5008870;28;20210;-76
2022/09/18 06:52:13;;;;;;;4.30;1.00;;;;;;;12.09;100.00;100258.66;5011521;28;20362;-75
2022/09/18 06:54:40;;;;;;;2.15;1.05;;;;;;;12.00;100.00;100263.69;5013380;28;20203;-74
2022/09/18 06:57:06;;;;;;;2.78;1.02;;;;;;;12.12;100.00;100259.47;5014802;28;20226;-74
2022/09/18 06:59:33;;;;;;;5.80;1.08;;;;;;;12.10;100.00;100254.16;5014848;28;20564;-77
2022/09/18 07:02:01;;;;;;;2.67;1.00;;;;;;;12.24;100.00;100253.41;5010780;28;20565;-75
2022/09/18 07:04:27;;;;;;;3.05;1.02;;;;;;;12.37;100.00;100246.38;5013468;28;20635;-74
2022/09/18 07:06:54;;;;;;;2.75;0.95;;;;;;;12.41;100.00;100253.31;5015557;28;20218;-76
2022/09/18 07:09:20;;;;;;;2.03;1.05;;;;;;;12.36;100.00;100259.97;5013489;28;20204;-75
2022/09/18 07:11:47;;;;;;;2.67;0.95;;;;;;;12.29;100.00;100252.19;5016146;28;20662;-74
2022/09/18 07:14:14;;;;;;;1.95;1.05;;;;;;;12.35;100.00;100261.78;5015001;28;20196;-75
2022/09/18 07:16:40;;;;;;;5.03;1.23;;;;;;;12.39;100.00;100255.28;5014440;28;20222;-74
2022/09/18 07:19:08;;;;;;;1.63;0.85;;;;;;;12.45;100.00;100265.72;5015876;28;20207;-73
2022/09/18 07:21:37;;;;;;;3.15;1.05;;;;;;;12.47;100.00;100262.94;5015050;28;20251;-75
2022/09/18 07:24:04;;;;;;;2.72;1.13;;;;;;;12.49;100.00;100269.13;5012269;28;20220;-73
2022/09/18 07:26:30;;;;;;;3.38;1.08;;;;;;;12.54;100.00;100274.28;5006641;28;20224;-73
2022/09/18 07:28:57;;;;;;;1.70;0.90;;;;;;;12.56;100.00;100281.34;5013953;28;20205;-73
2022/09/18 07:31:23;;;;;;;1.50;0.70;;;;;;;12.54;100.00;100280.53;5014647;28;20203;-71
2022/09/18 07:33:52;;;;;;;2.80;0.93;;;;;;;12.48;100.00;100270.06;5009434;28;20577;-73
2022/09/18 07:36:20;;;;;;;1.67;0.82;;;;;;;12.50;100.00;100276.25;5013805;28;20229;-74
2022/09/18 07:38:49;;;;;;;2.65;1.00;;;;;;;12.49;100.00;100278.09;5013413;28;20203;-73
2022/09/18 07:41:16;;;;;;;1.40;0.80;;;;;;;12.64;100.00;100283.59;5013776;28;20290;-75
2022/09/18 07:43:42;;;;;;;2.53;0.70;;;;;;;12.51;100.00;100294.22;5012712;28;20234;-74
2022/09/18 07:46:09;;;;;;;1.23;0.63;;;;;;;12.37;100.00;100295.00;5014224;28;20220;-75
2022/09/18 07:48:36;;;;;;;5.20;0.90;;;;;;;12.36;100.00;100289.66;5016042;28;20298;-73
2022/09/18 07:51:04;;;;;;;2.20;0.82;;;;;;;12.36;100.00;100292.38;5016424;28;20208;-73
2022/09/18 07:53:33;;;;;;;1.42;0.70;;;;;;;12.43;100.00;100293.78;5015626;28;20202;-74
2022/09/18 07:56:00;;;;;;;1.50;0.88;;;;;;;12.69;100.00;100292.34;5015662;28;20240;-75
2022/09/18 07:58:26;;;;;;;3.25;0.80;;;;;;;12.66;100.00;100284.38;5012067;28;20195;-74
2022/09/18 08:00:53;;;;;;;2.05;1.20;;;;;;;12.71;100.00;100282.31;5014789;28;20204;-75
2022/09/18 08:03:20;;;;;;;1.63;0.80;;;;;;;12.82;100.00;100289.81;5016986;28;20232;-73
2022/09/18 08:05:46;;;;;;;2.10;0.80;;;;;;;13.03;100.00;100283.19;5028138;28;20294;-75
2022/09/18 08:08:15;;;;;;;1.90;0.80;;;;;;;13.23;100.00;100289.25;5024564;28;20223;-75
2022/09/18 08:10:45;;;;;;;1.40;0.80;;;;;;;13.09;100.00;100277.44;5023884;28;20206;-75
2022/09/18 08:13:12;;;;;;;1.20;0.63;;;;;;;12.86;100.00;100277.88;5012592;28;20227;-74
2022/09/18 08:15:40;;;;;;;1.30;0.60;;;;;;;12.89;100.00;100280.41;5022633;28;20708;-74
2022/09/18 08:18:07;;;;;;;2.28;0.90;;;;;;;12.93;100.00;100265.75;5030166;28;20747;-74
2022/09/18 08:20:34;;;;;;;4.65;0.90;;;;;;;13.19;100.00;100277.75;5029871;28;20266;-73
2022/09/18 08:23:02;;;;;;;1.60;0.70;;;;;;;13.21;100.00;100269.56;5017498;28;20224;-74
2022/09/18 08:25:29;;;;;;;2.05;0.60;;;;;;;13.23;100.00;100262.22;5017377;28;20208;-74
2022/09/18 08:28:00;;;;;;;1.40;0.70;;;;;;;13.43;100.00;100270.09;5014631;28;20287;-74
2022/09/18 08:30:28;;;;;;;2.15;0.80;;;;;;;13.47;100.00;100273.47;5016498;28;20189;-74
2022/09/18 08:32:58;;;;;;;1.10;0.60;;;;;;;13.44;100.00;100269.09;5015094;28;20196;-74
2022/09/18 08:35:24;;;;;;;1.30;0.60;;;;;;;13.44;100.00;100269.09;5011651;28;20210;-73
2022/09/18 08:37:51;;;;;;;1.30;0.60;;;;;;;13.29;100.00;100270.88;5010293;28;20556;-72
2022/09/18 08:40:20;;;;;;;1.40;0.68;;;;;;;13.33;100.00;100266.16;5010517;28;20290;-74
2022/09/18 08:43:04;;;;;;;5.47;0.70;;;;;;;13.43;100.00;100271.91;5014932;28;20231;-74
2022/09/18 08:45:47;;;;;;;2.10;0.80;;;;;;;13.50;100.00;100266.06;5014165;28;20234;-73
2022/09/18 08:48:18;;;;;;;2.95;0.88;;;;;;;13.58;100.00;100275.53;5012857;28;20195;-74
2022/09/18 08:50:53;;;;;;;1.58;0.80;;;;;;;13.56;100.00;100268.38;5014546;28;20199;-74
2022/09/18 08:53:25;;;;;;;1.38;0.70;;;;;;;13.63;100.00;100270.72;5012766;28;20198;-74
2022/09/18 08:55:54;;;;;;;1.70;0.70;;;;;;;13.57;100.00;100261.16;5013715;28;20232;-74
2022/09/18 08:58:29;;;;;;;2.58;0.88;;;;;;;13.57;100.00;100255.72;5013199;28;20573;-73
2022/09/18 09:01:00;;;;;;;2.10;0.70;;;;;;;13.62;100.00;100261.72;5013379;28;20324;-73
2022/09/18 09:03:33;;;;;;;1.63;0.60;;;;;;;13.67;100.00;100267.72;5009975;28;20227;-73
2022/09/18 09:06:06;;;;;;;2.20;0.80;;;;;;;13.76;100.00;100274.41;5014048;28;20733;-73
2022/09/18 09:08:56;;;;;;;2.15;1.23;;;;;;;13.85;100.00;100264.88;5013548;28;20209;-73
2022/09/18 09:11:34;;;;;;;2.30;0.88;;;;;;;13.70;100.00;100269.38;5015846;28;20544;-74
2022/09/18 09:14:20;;;;;;;2.15;0.85;;;;;;;13.73;100.00;100266.50;5013569;28;20615;-73
2022/09/18 09:16:51;;;;;;;1.20;0.70;;;;;;;13.68;100.00;100264.06;5012654;28;20699;-74
2022/09/18 09:19:30;;;;;;;1.67;0.80;;;;;;;13.70;100.00;100263.97;5014349;28;20193;-73
2022/09/18 09:22:05;;;;;;;1.88;1.20;;;;;;;13.62;100.00;100263.56;5018983;28;20213;-73
2022/09/18 09:24:34;;;;;;;1.60;0.90;;;;;;;13.70;100.00;100255.84;5015954;28;20219;-73
2022/09/18 09:27:09;;;;;;;4.65;1.10;;;;;;;13.74;100.00;100262.81;5016982;28;20233;-74
2022/09/18 09:29:42;;;;;;;4.03;1.10;;;;;;;13.90;100.00;100258.19;5012818;28;20204;-73
2022/09/18 09:32:19;;;;;;;2.33;1.00;;;;;;;13.90;100.00;100246.50;5011797;28;20201;-74
2022/09/18 09:34:51;;;;;;;2.42;1.42;;;;;;;14.04;100.00;100245.66;5007369;28;20671;-73
2022/09/18 09:37:22;;;;;;;1.90;1.27;;;;;;;14.03;100.00;100254.75;5012279;28;20239;-74
2022/09/18 09:39:55;;;;;;;3.03;1.30;;;;;;;14.15;100.00;100251.25;5013234;28;20715;-74
2022/09/18 09:42:28;;;;;;;1.90;1.50;;;;;;;14.15;100.00;100252.13;5013561;28;20208;-73
2022/09/18 09:45:01;;;;;;;2.40;1.35;;;;;;;14.22;100.00;100232.78;5012485;28;20217;-74
2022/09/18 09:47:37;;;;;;;2.28;1.40;;;;;;;14.31;100.00;100238.53;5012110;28;20272;-74
2022/09/18 09:50:18;;;;;;;2.90;1.55;;;;;;;14.56;100.00;100242.38;5010681;28;20202;-74
2022/09/18 09:52:47;;;;;;;1.75;1.33;;;;;;;14.66;98.22;100250.81;5008145;28;20282;-74
2022/09/18 09:55:21;;;;;;;2.75;1.38;;;;;;;14.64;98.18;100247.31;5007857;28;20675;-73
2022/09/18 09:57:58;;;;;;;2.85;1.40;;;;;;;14.51;98.20;100247.19;5007638;28;20689;-73
2022/09/18 10:00:27;;;;;;;2.40;1.50;;;;;;;14.42;99.95;100250.50;5010825;28;20222;-73
2022/09/18 10:03:16;;;;;;;4.82;1.85;;;;;;;14.40;99.82;100250.59;5016360;28;20675;-75
2022/09/18 10:05:50;;;;;;;2.55;1.73;;;;;;;14.75;97.06;100256.50;5008491;28;20226;-74
2022/09/18 10:08:22;;;;;;;2.58;1.45;;;;;;;14.98;94.55;100241.41;5011387;28;20195;-74
2022/09/18 10:10:53;;;;;;;2.15;1.30;;;;;;;15.28;89.79;100251.19;5011153;28;20197;-74
2022/09/18 10:13:24;;;;;;;3.45;1.75;;;;;;;15.40;89.29;100260.38;5009930;28;20209;-73
2022/09/18 10:15:58;;;;;;;3.88;1.40;;;;;;;15.50;86.70;100250.59;5011559;28;20640;-75
2022/09/18 10:18:31;;;;;;;3.30;1.58;;;;;;;15.36;89.50;100246.13;5010523;28;20756;-73
2022/09/18 10:21:03;;;;;;;3.05;1.40;;;;;;;15.16;89.73;100249.31;5012120;28;20211;-74
2022/09/18 10:23:37;;;;;;;2.72;1.30;;;;;;;14.82;92.28;100239.84;5010702;28;20203;-72
2022/09/18 10:26:05;;;;;;;2.50;1.30;;;;;;;14.67;95.36;100247.97;5011442;28;20262;-73
2022/09/18 10:28:32;;;;;;;2.95;1.40;;;;;;;14.31;100.00;100257.47;5011330;28;20194;-73
2022/09/18 10:31:02;;;;;;;3.20;1.52;;;;;;;14.08;100.00;100256.19;5010492;28;20212;-73
2022/09/18 10:33:34;;;;;;;2.08;1.75;;;;;;;13.92;100.00;100269.81;5009461;28;20200;-74
2022/09/18 10:36:09;;;;;;;1.95;1.67;;;;;;;13.86;100.00;100263.91;5033788;22;20235;-72
2022/09/18 10:38:38;;;;;;;3.33;2.35;;;;;;;13.79;100.00;100255.28;5008214;28;20622;-73
2022/09/18 10:41:29;;;;;;;5.82;2.30;;;;;;;13.96;100.00;100248.84;5003290;28;20247;-70
2022/09/18 10:44:07;;;;;;;5.75;2.00;;;;;;;13.86;100.00;100248.56;5003904;28;20707;-70
2022/09/18 10:46:39;;;;;;;4.70;2.03;;;;;;;13.92;100.00;100245.44;4977432;28;20790;-72
2022/09/18 10:49:18;;;;;;;4.43;2.40;;;;;;;13.89;100.00;100248.34;5004532;28;20670;-72
2022/09/18 10:51:45;;;;;;;2.45;1.30;;;;;;;13.85;100.00;100244.09;5010308;28;20201;-73
2022/09/18 10:54:17;;;;;;;4.22;1.90;;;;;;;13.89;100.00;100244.78;5006733;28;20691;-73
2022/09/18 10:56:44;;;;;;;4.22;1.50;;;;;;;13.72;100.00;100229.56;5012586;28;20367;-71
2022/09/18 10:59:32;;;;;;;2.33;1.58;;;;;;;13.82;100.00;100236.16;5011234;28;20209;-73
2022/09/18 11:02:03;;;;;;;2.60;1.40;;;;;;;13.93;100.00;100230.97;5008097;28;20221;-70
2022/09/18 11:04:31;;;;;;;2.42;1.27;;;;;;;13.97;100.00;100228.91;5002793;28;20225;-74
2022/09/18 11:07:01;;;;;;;4.38;1.77;;;;;;;14.06;100.00;100222.91;5011881;28;20223;-72
2022/09/18 11:09:32;;;;;;;5.03;1.85;;;;;;;14.18;100.00;100214.03;5012202;28;20734;-74
2022/09/18 11:11:59;;;;;;;4.18;1.60;;;;;;;14.19;100.00;100220.31;5009732;28;20198;-71
2022/09/18 11:14:28;;;;;;;2.65;1.30;;;;;;;14.15;100.00;100202.50;5011403;28;20568;-71
2022/09/18 11:16:57;;;;;;;3.95;1.23;;;;;;;14.19;100.00;100212.19;5012627;28;20225;-72
2022/09/18 11:19:28;;;;;;;3.40;1.30;;;;;;;14.23;100.00;100210.19;5012536;28;20197;-72
2022/09/18 11:21:59;;;;;;;1.95;1.20;;;;;;;14.25;100.00;100206.41;5019624;28;20202;-73
2022/09/18 11:24:30;;;;;;;3.72;1.45;;;;;;;14.24;100.00;100212.75;5028688;28;20256;-72
2022/09/18 11:26:58;;;;;;;1.90;1.30;;;;;;;14.35;97.94;100214.78;5015603;28;20252;-73
2022/09/18 11:29:29;;;;;;;2.75;1.10;;;;;;;14.44;95.09;100213.34;5031882;28;20201;-72